Colfax, North Carolina
Current Conditions -  °F | °C
As of 6:54 AM on Thursday 29 Jan 2015 (Local Time) from KGSO Reporting Station
Scattered Clouds Scattered Clouds  
Wind Chill: 19°   Ceiling: Unl
Heat Index: 25°   Visibility: 10mi
Dew Point: 17°   Wind: 5mph
Humidity: 72%   Direction: 200°SSW
Pressure: 30.29"   Gusts: NA
Location:  36.11°N, 80.01°W
Report Text: KGSO 291154Z 20004KT 10SM SCT250 M04/M08 A3029 RMK AO2 SLP264 T10391083 11006 21039 55000
Loading
Personal Weather Stations






























Interactive Weather Map New forecast layout! Learn more

10-Day Weather Forecast

Advertisements
Track Severe Weather on mobile